Chaska, Minnesota
Current Conditions -  °F | °C
As of 7:53 PM on Friday 19 Dec 2014 (Local Time) from KFCM Reporting Station
Haze Haze  
Wind Chill: 23°   Ceiling: 1100
Heat Index: 30°   Visibility: 5mi
Dew Point: 25°   Wind: 7mph
Humidity: 82%   Direction: 150°SSE
Pressure: 30.17"   Gusts: NA
Location:  44.79°N, 93.6°W
Report Text: KFCM 200153Z 15006KT 5SM HZ OVC011 M01/M04 A3017 RMK AO2 SLP231 T10111039
Loading
Personal Weather Stations






























Interactive Weather Map New forecast layout! Learn more

10-Day Weather Forecast

Advertisements
Track Severe Weather on mobile